sensor_id;sensor_type;location;lat;lon;timestamp;temperature;humidity
15949;DHT22;14848;50.954;6.642;2022-11-25T00:00:50;7.50;99.90
15949;DHT22;14848;50.954;6.642;2022-11-25T00:03:16;7.50;99.90
15949;DHT22;14848;50.954;6.642;2022-11-25T00:05:42;7.50;99.90
15949;DHT22;14848;50.954;6.642;2022-11-25T00:08:07;7.40;99.90
15949;DHT22;14848;50.954;6.642;2022-11-25T00:10:33;7.50;99.90
15949;DHT22;14848;50.954;6.642;2022-11-25T00:12:59;7.50;99.90
15949;DHT22;14848;50.954;6.642;2022-11-25T00:15:25;7.60;99.90
15949;DHT22;14848;50.954;6.642;2022-11-25T00:17:51;7.50;99.90
15949;DHT22;14848;50.954;6.642;2022-11-25T00:20:16;7.50;99.90
15949;DHT22;14848;50.954;6.642;2022-11-25T00:22:44;7.50;99.90
15949;DHT22;14848;50.954;6.642;2022-11-25T00:25:10;7.50;99.90
15949;DHT22;14848;50.954;6.642;2022-11-25T00:27:36;7.50;99.90
15949;DHT22;14848;50.954;6.642;2022-11-25T00:30:02;7.50;99.90
15949;DHT22;14848;50.954;6.642;2022-11-25T00:32:28;7.60;99.90
15949;DHT22;14848;50.954;6.642;2022-11-25T00:34:54;7.50;99.90
15949;DHT22;14848;50.954;6.642;2022-11-25T00:37:19;7.70;99.90
15949;DHT22;14848;50.954;6.642;2022-11-25T00:39:45;7.70;99.90
15949;DHT22;14848;50.954;6.642;2022-11-25T00:42:11;7.70;99.90
15949;DHT22;14848;50.954;6.642;2022-11-25T00:44:55;7.60;99.90
15949;DHT22;14848;50.954;6.642;2022-11-25T00:47:21;7.80;99.90
15949;DHT22;14848;50.954;6.642;2022-11-25T00:49:49;7.10;99.90
15949;DHT22;14848;50.954;6.642;2022-11-25T00:52:23;7.80;99.90
15949;DHT22;14848;50.954;6.642;2022-11-25T00:54:49;7.90;99.90
15949;DHT22;14848;50.954;6.642;2022-11-25T00:57:17;7.90;99.90
15949;DHT22;14848;50.954;6.642;2022-11-25T00:59:43;8.00;99.90
15949;DHT22;14848;50.954;6.642;2022-11-25T01:02:10;8.00;99.90
15949;DHT22;14848;50.954;6.642;2022-11-25T01:04:36;8.00;99.90
15949;DHT22;14848;50.954;6.642;2022-11-25T01:07:02;8.10;99.90
15949;DHT22;14848;50.954;6.642;2022-11-25T01:09:28;8.10;99.90
15949;DHT22;14848;50.954;6.642;2022-11-25T01:11:55;8.10;99.90
15949;DHT22;14848;50.954;6.642;2022-11-25T01:14:22;8.10;99.90
15949;DHT22;14848;50.954;6.642;2022-11-25T01:16:48;8.10;99.90
15949;DHT22;14848;50.954;6.642;2022-11-25T01:19:15;8.10;99.90
15949;DHT22;14848;50.954;6.642;2022-11-25T01:21:41;8.10;99.90
15949;DHT22;14848;50.954;6.642;2022-11-25T01:24:07;8.20;99.90
15949;DHT22;14848;50.954;6.642;2022-11-25T01:26:34;8.20;99.90
15949;DHT22;14848;50.954;6.642;2022-11-25T01:29:05;8.30;99.90
15949;DHT22;14848;50.954;6.642;2022-11-25T01:31:34;8.20;99.90
15949;DHT22;14848;50.954;6.642;2022-11-25T01:34:06;8.20;99.90
15949;DHT22;14848;50.954;6.642;2022-11-25T01:36:32;8.30;99.90
15949;DHT22;14848;50.954;6.642;2022-11-25T01:38:59;8.30;99.90
15949;DHT22;14848;50.954;6.642;2022-11-25T01:41:29;8.30;99.90
15949;DHT22;14848;50.954;6.642;2022-11-25T01:49:58;8.40;99.90
15949;DHT22;14848;50.954;6.642;2022-11-25T01:52:30;8.40;99.90
15949;DHT22;14848;50.954;6.642;2022-11-25T01:55:10;8.40;99.90
15949;DHT22;14848;50.954;6.642;2022-11-25T01:58:02;8.40;99.90
15949;DHT22;14848;50.954;6.642;2022-11-25T02:00:29;8.50;99.90
15949;DHT22;14848;50.954;6.642;2022-11-25T02:02:57;8.50;99.90
15949;DHT22;14848;50.954;6.642;2022-11-25T02:05:37;8.50;99.90
15949;DHT22;14848;50.954;6.642;2022-11-25T02:08:06;8.50;99.90
15949;DHT22;14848;50.954;6.642;2022-11-25T02:10:32;8.60;99.90
15949;DHT22;14848;50.954;6.642;2022-11-25T02:12:59;8.50;99.90
15949;DHT22;14848;50.954;6.642;2022-11-25T02:15:26;8.50;99.90
15949;DHT22;14848;50.954;6.642;2022-11-25T02:17:53;8.50;99.90
15949;DHT22;14848;50.954;6.642;2022-11-25T02:20:20;8.50;99.90
15949;DHT22;14848;50.954;6.642;2022-11-25T02:23:08;8.60;99.90
15949;DHT22;14848;50.954;6.642;2022-11-25T02:25:39;8.60;99.90
15949;DHT22;14848;50.954;6.642;2022-11-25T02:28:09;8.70;99.90
15949;DHT22;14848;50.954;6.642;2022-11-25T02:30:36;8.70;99.90
15949;DHT22;14848;50.954;6.642;2022-11-25T02:33:02;8.70;99.90
15949;DHT22;14848;50.954;6.642;2022-11-25T02:38:05;8.70;99.90
15949;DHT22;14848;50.954;6.642;2022-11-25T02:40:35;8.70;99.90
15949;DHT22;14848;50.954;6.642;2022-11-25T02:43:02;8.80;99.90
15949;DHT22;14848;50.954;6.642;2022-11-25T02:46:01;8.80;99.90
15949;DHT22;14848;50.954;6.642;2022-11-25T02:48:29;8.90;99.90
15949;DHT22;14848;50.954;6.642;2022-11-25T02:50:55;8.90;99.90
15949;DHT22;14848;50.954;6.642;2022-11-25T02:53:21;8.90;99.90
15949;DHT22;14848;50.954;6.642;2022-11-25T02:55:47;8.90;99.90
15949;DHT22;14848;50.954;6.642;2022-11-25T02:58:13;8.90;99.90
15949;DHT22;14848;50.954;6.642;2022-11-25T03:00:40;9.00;99.90
15949;DHT22;14848;50.954;6.642;2022-11-25T03:03:05;9.00;99.90
15949;DHT22;14848;50.954;6.642;2022-11-25T03:05:31;9.10;99.90
15949;DHT22;14848;50.954;6.642;2022-11-25T03:07:57;9.10;99.90
15949;DHT22;14848;50.954;6.642;2022-11-25T03:10:23;9.10;99.90
15949;DHT22;14848;50.954;6.642;2022-11-25T03:12:49;9.10;99.90
15949;DHT22;14848;50.954;6.642;2022-11-25T03:15:14;9.10;99.90
15949;DHT22;14848;50.954;6.642;2022-11-25T03:17:40;9.10;99.90
15949;DHT22;14848;50.954;6.642;2022-11-25T03:20:08;9.10;99.90
15949;DHT22;14848;50.954;6.642;2022-11-25T03:22:34;9.10;99.90
15949;DHT22;14848;50.954;6.642;2022-11-25T03:25:00;9.20;99.90
15949;DHT22;14848;50.954;6.642;2022-11-25T03:27:26;9.20;99.90
15949;DHT22;14848;50.954;6.642;2022-11-25T03:29:52;9.10;99.90
15949;DHT22;14848;50.954;6.642;2022-11-25T03:32:18;9.20;99.90
15949;DHT22;14848;50.954;6.642;2022-11-25T03:34:43;9.20;99.90
15949;DHT22;14848;50.954;6.642;2022-11-25T03:37:09;9.20;99.90
15949;DHT22;14848;50.954;6.642;2022-11-25T03:39:35;9.20;99.90
15949;DHT22;14848;50.954;6.642;2022-11-25T03:42:00;9.10;99.90
15949;DHT22;14848;50.954;6.642;2022-11-25T03:44:26;9.10;99.90
15949;DHT22;14848;50.954;6.642;2022-11-25T03:46:52;9.20;99.90
15949;DHT22;14848;50.954;6.642;2022-11-25T03:49:18;9.10;99.90
15949;DHT22;14848;50.954;6.642;2022-11-25T03:51:43;9.20;99.90
15949;DHT22;14848;50.954;6.642;2022-11-25T03:54:09;9.10;99.90
15949;DHT22;14848;50.954;6.642;2022-11-25T03:56:35;9.20;99.90
15949;DHT22;14848;50.954;6.642;2022-11-25T03:59:01;9.10;99.90
15949;DHT22;14848;50.954;6.642;2022-11-25T04:01:26;9.10;99.90
15949;DHT22;14848;50.954;6.642;2022-11-25T04:03:52;9.10;99.90
15949;DHT22;14848;50.954;6.642;2022-11-25T04:06:18;9.10;99.90
15949;DHT22;14848;50.954;6.642;2022-11-25T04:08:46;9.10;99.90
15949;DHT22;14848;50.954;6.642;2022-11-25T04:11:11;9.10;99.90
15949;DHT22;14848;50.954;6.642;2022-11-25T04:13:37;9.10;99.90
15949;DHT22;14848;50.954;6.642;2022-11-25T04:16:02;9.00;99.90
15949;DHT22;14848;50.954;6.642;2022-11-25T04:18:28;9.00;99.90
15949;DHT22;14848;50.954;6.642;2022-11-25T04:20:54;9.00;99.90
15949;DHT22;14848;50.954;6.642;2022-11-25T04:23:20;8.90;99.90
15949;DHT22;14848;50.954;6.642;2022-11-25T04:25:48;8.80;99.90
15949;DHT22;14848;50.954;6.642;2022-11-25T04:28:14;8.70;99.90
15949;DHT22;14848;50.954;6.642;2022-11-25T04:30:40;8.70;99.90
15949;DHT22;14848;50.954;6.642;2022-11-25T04:33:05;8.60;99.90
15949;DHT22;14848;50.954;6.642;2022-11-25T04:35:31;8.50;99.90
15949;DHT22;14848;50.954;6.642;2022-11-25T04:37:57;8.50;99.90
15949;DHT22;14848;50.954;6.642;2022-11-25T04:40:22;8.40;99.90
15949;DHT22;14848;50.954;6.642;2022-11-25T04:42:48;8.40;99.90
15949;DHT22;14848;50.954;6.642;2022-11-25T04:45:16;8.30;99.90
15949;DHT22;14848;50.954;6.642;2022-11-25T04:47:43;8.30;99.90
15949;DHT22;14848;50.954;6.642;2022-11-25T04:50:14;8.30;99.90
15949;DHT22;14848;50.954;6.642;2022-11-25T04:52:39;8.20;99.90
15949;DHT22;14848;50.954;6.642;2022-11-25T04:55:05;8.30;99.90
15949;DHT22;14848;50.954;6.642;2022-11-25T04:57:31;8.20;99.90
15949;DHT22;14848;50.954;6.642;2022-11-25T04:59:57;8.20;99.90
15949;DHT22;14848;50.954;6.642;2022-11-25T05:02:24;8.20;99.90
15949;DHT22;14848;50.954;6.642;2022-11-25T05:04:53;8.20;99.90
15949;DHT22;14848;50.954;6.642;2022-11-25T05:07:21;8.20;99.90
15949;DHT22;14848;50.954;6.642;2022-11-25T05:09:47;8.30;99.90
15949;DHT22;14848;50.954;6.642;2022-11-25T05:12:17;8.20;99.90
15949;DHT22;14848;50.954;6.642;2022-11-25T05:14:43;8.20;99.90
15949;DHT22;14848;50.954;6.642;2022-11-25T05:17:15;8.30;99.90
15949;DHT22;14848;50.954;6.642;2022-11-25T05:19:41;8.20;99.90
15949;DHT22;14848;50.954;6.642;2022-11-25T05:22:10;8.10;99.90
15949;DHT22;14848;50.954;6.642;2022-11-25T05:24:36;8.30;99.90
15949;DHT22;14848;50.954;6.642;2022-11-25T05:27:01;8.20;99.90
15949;DHT22;14848;50.954;6.642;2022-11-25T05:29:27;8.20;99.90
15949;DHT22;14848;50.954;6.642;2022-11-25T05:31:53;8.10;99.90
15949;DHT22;14848;50.954;6.642;2022-11-25T05:34:18;8.10;99.90
15949;DHT22;14848;50.954;6.642;2022-11-25T05:36:44;8.10;99.90
15949;DHT22;14848;50.954;6.642;2022-11-25T05:39:10;8.10;99.90
15949;DHT22;14848;50.954;6.642;2022-11-25T05:41:35;8.10;99.90
15949;DHT22;14848;50.954;6.642;2022-11-25T05:44:01;8.10;99.90
15949;DHT22;14848;50.954;6.642;2022-11-25T05:46:27;8.10;99.90
15949;DHT22;14848;50.954;6.642;2022-11-25T05:48:54;8.00;99.90
15949;DHT22;14848;50.954;6.642;2022-11-25T05:51:20;8.00;99.90
15949;DHT22;14848;50.954;6.642;2022-11-25T05:53:46;8.00;99.90
15949;DHT22;14848;50.954;6.642;2022-11-25T05:56:12;8.10;99.90
15949;DHT22;14848;50.954;6.642;2022-11-25T05:58:37;7.90;99.90
15949;DHT22;14848;50.954;6.642;2022-11-25T06:01:11;8.00;99.90
15949;DHT22;14848;50.954;6.642;2022-11-25T06:03:37;8.00;99.90
15949;DHT22;14848;50.954;6.642;2022-11-25T06:06:04;8.10;99.90
15949;DHT22;14848;50.954;6.642;2022-11-25T06:08:30;8.10;99.90
15949;DHT22;14848;50.954;6.642;2022-11-25T06:10:56;8.00;99.90
15949;DHT22;14848;50.954;6.642;2022-11-25T06:13:22;8.00;99.90
15949;DHT22;14848;50.954;6.642;2022-11-25T06:15:48;8.00;99.90
15949;DHT22;14848;50.954;6.642;2022-11-25T06:18:15;8.00;99.90
15949;DHT22;14848;50.954;6.642;2022-11-25T06:20:42;7.90;99.90
15949;DHT22;14848;50.954;6.642;2022-11-25T06:23:08;8.00;99.90
15949;DHT22;14848;50.954;6.642;2022-11-25T06:25:35;8.00;99.90
15949;DHT22;14848;50.954;6.642;2022-11-25T06:28:01;8.10;99.90
15949;DHT22;14848;50.954;6.642;2022-11-25T06:30:28;8.10;99.90
15949;DHT22;14848;50.954;6.642;2022-11-25T06:32:54;8.10;99.90
15949;DHT22;14848;50.954;6.642;2022-11-25T06:35:20;8.10;99.90
15949;DHT22;14848;50.954;6.642;2022-11-25T06:37:46;8.10;99.90
15949;DHT22;14848;50.954;6.642;2022-11-25T06:40:12;8.10;99.90
15949;DHT22;14848;50.954;6.642;2022-11-25T06:42:38;8.10;99.90
15949;DHT22;14848;50.954;6.642;2022-11-25T06:45:05;8.20;99.90
15949;DHT22;14848;50.954;6.642;2022-11-25T06:47:31;8.10;99.90
15949;DHT22;14848;50.954;6.642;2022-11-25T06:49:56;8.00;99.90
15949;DHT22;14848;50.954;6.642;2022-11-25T06:52:22;8.00;99.90
15949;DHT22;14848;50.954;6.642;2022-11-25T06:54:50;8.00;99.90
15949;DHT22;14848;50.954;6.642;2022-11-25T06:57:17;7.90;99.90
15949;DHT22;14848;50.954;6.642;2022-11-25T06:59:44;7.90;99.90
15949;DHT22;14848;50.954;6.642;2022-11-25T07:02:12;7.80;99.90
15949;DHT22;14848;50.954;6.642;2022-11-25T07:04:38;7.80;99.90
15949;DHT22;14848;50.954;6.642;2022-11-25T07:07:05;7.70;99.90
15949;DHT22;14848;50.954;6.642;2022-11-25T07:09:31;7.60;99.90
15949;DHT22;14848;50.954;6.642;2022-11-25T07:11:57;7.60;99.90
15949;DHT22;14848;50.954;6.642;2022-11-25T07:14:23;7.50;99.90
15949;DHT22;14848;50.954;6.642;2022-11-25T07:16:48;7.50;99.90
15949;DHT22;14848;50.954;6.642;2022-11-25T07:19:16;7.50;99.90
15949;DHT22;14848;50.954;6.642;2022-11-25T07:21:43;7.50;99.90
15949;DHT22;14848;50.954;6.642;2022-11-25T07:24:12;7.50;99.90
15949;DHT22;14848;50.954;6.642;2022-11-25T07:26:39;7.50;99.90
15949;DHT22;14848;50.954;6.642;2022-11-25T07:29:10;7.50;99.90
15949;DHT22;14848;50.954;6.642;2022-11-25T07:31:39;7.50;99.90
15949;DHT22;14848;50.954;6.642;2022-11-25T07:34:18;7.40;99.90
15949;DHT22;14848;50.954;6.642;2022-11-25T07:36:46;7.50;99.90
15949;DHT22;14848;50.954;6.642;2022-11-25T07:39:15;7.50;99.90
15949;DHT22;14848;50.954;6.642;2022-11-25T07:41:41;7.60;99.90
15949;DHT22;14848;50.954;6.642;2022-11-25T07:44:09;7.70;99.90
15949;DHT22;14848;50.954;6.642;2022-11-25T07:46:38;7.70;99.90
15949;DHT22;14848;50.954;6.642;2022-11-25T07:49:09;7.70;99.90
15949;DHT22;14848;50.954;6.642;2022-11-25T07:51:38;7.60;99.90
15949;DHT22;14848;50.954;6.642;2022-11-25T07:54:06;7.70;99.90
15949;DHT22;14848;50.954;6.642;2022-11-25T07:56:34;7.80;99.90
15949;DHT22;14848;50.954;6.642;2022-11-25T07:59:00;7.60;99.90
15949;DHT22;14848;50.954;6.642;2022-11-25T08:01:26;7.90;99.90
15949;DHT22;14848;50.954;6.642;2022-11-25T08:03:53;7.80;99.90
15949;DHT22;14848;50.954;6.642;2022-11-25T08:06:21;7.90;99.90
15949;DHT22;14848;50.954;6.642;2022-11-25T08:08:47;8.00;99.90
15949;DHT22;14848;50.954;6.642;2022-11-25T08:11:19;8.00;99.90
15949;DHT22;14848;50.954;6.642;2022-11-25T08:13:46;8.00;99.90
15949;DHT22;14848;50.954;6.642;2022-11-25T08:16:13;8.10;99.90
15949;DHT22;14848;50.954;6.642;2022-11-25T08:18:40;8.20;99.90
15949;DHT22;14848;50.954;6.642;2022-11-25T08:21:08;8.20;99.90
15949;DHT22;14848;50.954;6.642;2022-11-25T08:23:38;8.30;99.90
15949;DHT22;14848;50.954;6.642;2022-11-25T08:26:15;8.40;99.90
15949;DHT22;14848;50.954;6.642;2022-11-25T08:28:41;8.50;99.90
15949;DHT22;14848;50.954;6.642;2022-11-25T08:31:13;8.50;99.90
15949;DHT22;14848;50.954;6.642;2022-11-25T08:33:39;8.60;99.90
15949;DHT22;14848;50.954;6.642;2022-11-25T08:36:05;8.70;99.90
15949;DHT22;14848;50.954;6.642;2022-11-25T08:38:32;8.70;99.90
15949;DHT22;14848;50.954;6.642;2022-11-25T08:40:58;8.80;99.90
15949;DHT22;14848;50.954;6.642;2022-11-25T08:43:24;8.80;99.90
15949;DHT22;14848;50.954;6.642;2022-11-25T08:45:50;8.90;99.90
15949;DHT22;14848;50.954;6.642;2022-11-25T08:48:18;8.90;99.90
15949;DHT22;14848;50.954;6.642;2022-11-25T08:50:50;9.00;99.90
15949;DHT22;14848;50.954;6.642;2022-11-25T08:53:16;9.10;99.90
15949;DHT22;14848;50.954;6.642;2022-11-25T08:55:42;9.20;99.90
15949;DHT22;14848;50.954;6.642;2022-11-25T08:58:08;9.20;99.90
15949;DHT22;14848;50.954;6.642;2022-11-25T09:00:36;9.20;99.90
15949;DHT22;14848;50.954;6.642;2022-11-25T09:03:02;9.40;99.90
15949;DHT22;14848;50.954;6.642;2022-11-25T09:05:27;9.40;99.90
15949;DHT22;14848;50.954;6.642;2022-11-25T09:08:03;9.40;99.90
15949;DHT22;14848;50.954;6.642;2022-11-25T09:10:29;9.50;99.90
15949;DHT22;14848;50.954;6.642;2022-11-25T09:12:54;9.60;99.90
15949;DHT22;14848;50.954;6.642;2022-11-25T09:15:20;9.60;99.90
15949;DHT22;14848;50.954;6.642;2022-11-25T09:17:45;9.70;99.90
15949;DHT22;14848;50.954;6.642;2022-11-25T09:20:11;9.70;99.90
15949;DHT22;14848;50.954;6.642;2022-11-25T09:22:37;9.80;99.90
15949;DHT22;14848;50.954;6.642;2022-11-25T09:25:03;9.90;99.90
15949;DHT22;14848;50.954;6.642;2022-11-25T09:27:30;9.90;99.90
15949;DHT22;14848;50.954;6.642;2022-11-25T09:29:56;10.00;99.90
15949;DHT22;14848;50.954;6.642;2022-11-25T09:32:21;10.00;99.90
15949;DHT22;14848;50.954;6.642;2022-11-25T09:34:47;10.20;99.90
15949;DHT22;14848;50.954;6.642;2022-11-25T09:37:13;10.20;99.90
15949;DHT22;14848;50.954;6.642;2022-11-25T09:39:39;10.30;99.90
15949;DHT22;14848;50.954;6.642;2022-11-25T09:42:39;10.40;99.90
15949;DHT22;14848;50.954;6.642;2022-11-25T09:45:37;10.20;99.90
15949;DHT22;14848;50.954;6.642;2022-11-25T09:51:22;10.50;99.90
15949;DHT22;14848;50.954;6.642;2022-11-25T09:56:18;10.60;99.90
15949;DHT22;14848;50.954;6.642;2022-11-25T09:58:58;10.80;99.90
15949;DHT22;14848;50.954;6.642;2022-11-25T10:01:26;10.70;99.90
15949;DHT22;14848;50.954;6.642;2022-11-25T10:04:06;10.60;99.90
15949;DHT22;14848;50.954;6.642;2022-11-25T10:06:48;10.70;99.90
15949;DHT22;14848;50.954;6.642;2022-11-25T10:09:18;10.60;99.90
15949;DHT22;14848;50.954;6.642;2022-11-25T10:11:59;10.70;99.90
15949;DHT22;14848;50.954;6.642;2022-11-25T10:14:47;10.80;99.90
15949;DHT22;14848;50.954;6.642;2022-11-25T10:17:41;10.90;99.90
15949;DHT22;14848;50.954;6.642;2022-11-25T10:22:47;10.90;99.90
15949;DHT22;14848;50.954;6.642;2022-11-25T10:32:53;11.30;99.90
15949;DHT22;14848;50.954;6.642;2022-11-25T10:35:30;11.40;99.90
15949;DHT22;14848;50.954;6.642;2022-11-25T10:37:59;11.40;99.90
15949;DHT22;14848;50.954;6.642;2022-11-25T10:40:26;11.50;99.90
15949;DHT22;14848;50.954;6.642;2022-11-25T10:42:52;11.50;99.90
15949;DHT22;14848;50.954;6.642;2022-11-25T10:45:23;11.60;99.90
15949;DHT22;14848;50.954;6.642;2022-11-25T10:49:04;11.50;99.90
15949;DHT22;14848;50.954;6.642;2022-11-25T10:51:38;11.60;99.90
15949;DHT22;14848;50.954;6.642;2022-11-25T10:54:09;11.60;99.90
15949;DHT22;14848;50.954;6.642;2022-11-25T10:56:49;11.60;99.90
15949;DHT22;14848;50.954;6.642;2022-11-25T10:59:38;11.70;99.90
15949;DHT22;14848;50.954;6.642;2022-11-25T11:02:16;11.80;99.90
15949;DHT22;14848;50.954;6.642;2022-11-25T11:07:17;12.10;99.90
15949;DHT22;14848;50.954;6.642;2022-11-25T11:09:43;11.80;99.90
15949;DHT22;14848;50.954;6.642;2022-11-25T11:14:45;11.80;99.90
15949;DHT22;14848;50.954;6.642;2022-11-25T11:17:30;11.80;99.90
15949;DHT22;14848;50.954;6.642;2022-11-25T11:22:35;11.80;99.90
15949;DHT22;14848;50.954;6.642;2022-11-25T11:27:48;12.00;99.90
15949;DHT22;14848;50.954;6.642;2022-11-25T11:30:18;12.10;99.90
15949;DHT22;14848;50.954;6.642;2022-11-25T11:32:56;12.20;99.90
15949;DHT22;14848;50.954;6.642;2022-11-25T11:35:37;12.20;99.90
15949;DHT22;14848;50.954;6.642;2022-11-25T11:38:30;12.20;99.90
15949;DHT22;14848;50.954;6.642;2022-11-25T11:44:17;12.10;99.90
15949;DHT22;14848;50.954;6.642;2022-11-25T11:47:52;12.30;99.90
15949;DHT22;14848;50.954;6.642;2022-11-25T11:50:02;12.30;99.90
15949;DHT22;14848;50.954;6.642;2022-11-25T11:52:47;12.40;99.90
15949;DHT22;14848;50.954;6.642;2022-11-25T12:01:19;12.30;99.90
15949;DHT22;14848;50.954;6.642;2022-11-25T12:04:19;12.50;99.90
15949;DHT22;14848;50.954;6.642;2022-11-25T12:07:04;12.30;99.90
15949;DHT22;14848;50.954;6.642;2022-11-25T12:09:36;12.30;99.90
15949;DHT22;14848;50.954;6.642;2022-11-25T12:12:05;12.30;99.90
15949;DHT22;14848;50.954;6.642;2022-11-25T12:14:43;12.40;99.90
15949;DHT22;14848;50.954;6.642;2022-11-25T12:17:22;12.30;99.90
15949;DHT22;14848;50.954;6.642;2022-11-25T12:19:57;12.20;99.90
15949;DHT22;14848;50.954;6.642;2022-11-25T12:22:26;12.20;99.90
15949;DHT22;14848;50.954;6.642;2022-11-25T12:27:52;12.50;99.90
15949;DHT22;14848;50.954;6.642;2022-11-25T12:30:35;12.60;99.90
15949;DHT22;14848;50.954;6.642;2022-11-25T12:33:15;12.60;99.90
15949;DHT22;14848;50.954;6.642;2022-11-25T12:36:04;13.00;99.90
15949;DHT22;14848;50.954;6.642;2022-11-25T12:38:44;12.70;99.90
15949;DHT22;14848;50.954;6.642;2022-11-25T12:41:24;12.70;99.90
15949;DHT22;14848;50.954;6.642;2022-11-25T12:46:44;12.60;99.90
15949;DHT22;14848;50.954;6.642;2022-11-25T12:49:25;12.60;99.90
15949;DHT22;14848;50.954;6.642;2022-11-25T12:54:33;12.30;99.90
15949;DHT22;14848;50.954;6.642;2022-11-25T13:00:27;12.10;99.90
15949;DHT22;14848;50.954;6.642;2022-11-25T13:03:26;12.10;99.90
15949;DHT22;14848;50.954;6.642;2022-11-25T13:06:00;11.50;99.90
15949;DHT22;14848;50.954;6.642;2022-11-25T13:08:58;12.10;99.90
15949;DHT22;14848;50.954;6.642;2022-11-25T13:17:18;12.30;99.90
15949;DHT22;14848;50.954;6.642;2022-11-25T13:19:45;12.40;99.90
15949;DHT22;14848;50.954;6.642;2022-11-25T13:24:45;12.40;99.90
15949;DHT22;14848;50.954;6.642;2022-11-25T13:27:31;12.40;99.90
15949;DHT22;14848;50.954;6.642;2022-11-25T13:29:57;12.60;99.90
15949;DHT22;14848;50.954;6.642;2022-11-25T13:32:32;12.40;99.90
15949;DHT22;14848;50.954;6.642;2022-11-25T13:37:46;12.20;99.90
15949;DHT22;14848;50.954;6.642;2022-11-25T13:42:51;12.20;99.90
15949;DHT22;14848;50.954;6.642;2022-11-25T13:45:43;12.20;99.90
15949;DHT22;14848;50.954;6.642;2022-11-25T13:48:19;12.20;99.90
15949;DHT22;14848;50.954;6.642;2022-11-25T13:50:46;12.30;99.90
15949;DHT22;14848;50.954;6.642;2022-11-25T13:53:33;12.20;99.90
15949;DHT22;14848;50.954;6.642;2022-11-25T13:56:25;12.30;99.90
15949;DHT22;14848;50.954;6.642;2022-11-25T14:04:10;12.10;99.90
15949;DHT22;14848;50.954;6.642;2022-11-25T14:09:32;12.20;99.90
15949;DHT22;14848;50.954;6.642;2022-11-25T14:15:02;12.00;99.90
15949;DHT22;14848;50.954;6.642;2022-11-25T14:21:19;11.90;99.90
15949;DHT22;14848;50.954;6.642;2022-11-25T14:26:27;12.10;99.90
15949;DHT22;14848;50.954;6.642;2022-11-25T14:29:37;11.80;99.90
15949;DHT22;14848;50.954;6.642;2022-11-25T14:33:09;11.80;99.90
15949;DHT22;14848;50.954;6.642;2022-11-25T14:35:14;11.80;99.90
15949;DHT22;14848;50.954;6.642;2022-11-25T14:38:03;11.60;99.90
15949;DHT22;14848;50.954;6.642;2022-11-25T14:40:41;11.80;99.90
15949;DHT22;14848;50.954;6.642;2022-11-25T14:43:14;11.90;99.90
15949;DHT22;14848;50.954;6.642;2022-11-25T14:45:41;11.90;99.90
15949;DHT22;14848;50.954;6.642;2022-11-25T14:48:18;12.00;99.90
15949;DHT22;14848;50.954;6.642;2022-11-25T14:50:59;12.00;99.90
15949;DHT22;14848;50.954;6.642;2022-11-25T14:53:26;12.00;99.90
15949;DHT22;14848;50.954;6.642;2022-11-25T14:55:52;12.00;99.90
15949;DHT22;14848;50.954;6.642;2022-11-25T14:58:19;12.00;99.90
15949;DHT22;14848;50.954;6.642;2022-11-25T15:00:59;11.90;99.90
15949;DHT22;14848;50.954;6.642;2022-11-25T15:03:25;11.80;99.90
15949;DHT22;14848;50.954;6.642;2022-11-25T15:06:02;11.70;99.90
15949;DHT22;14848;50.954;6.642;2022-11-25T15:08:40;11.60;99.90
15949;DHT22;14848;50.954;6.642;2022-11-25T15:11:16;11.50;99.90
15949;DHT22;14848;50.954;6.642;2022-11-25T15:13:45;11.40;99.90
15949;DHT22;14848;50.954;6.642;2022-11-25T15:16:20;11.00;99.90
15949;DHT22;14848;50.954;6.642;2022-11-25T15:18:53;11.20;99.90
15949;DHT22;14848;50.954;6.642;2022-11-25T15:21:33;11.10;99.90
15949;DHT22;14848;50.954;6.642;2022-11-25T15:24:04;11.10;99.90
15949;DHT22;14848;50.954;6.642;2022-11-25T15:26:33;10.90;99.90
15949;DHT22;14848;50.954;6.642;2022-11-25T15:29:05;10.80;99.90
15949;DHT22;14848;50.954;6.642;2022-11-25T15:31:34;10.70;99.90
15949;DHT22;14848;50.954;6.642;2022-11-25T15:34:10;10.50;99.90
15949;DHT22;14848;50.954;6.642;2022-11-25T15:36:36;10.60;99.90
15949;DHT22;14848;50.954;6.642;2022-11-25T15:39:14;10.50;99.90
15949;DHT22;14848;50.954;6.642;2022-11-25T15:41:42;10.50;99.90
15949;DHT22;14848;50.954;6.642;2022-11-25T15:46:56;10.40;99.90
15949;DHT22;14848;50.954;6.642;2022-11-25T15:49:22;10.40;99.90
15949;DHT22;14848;50.954;6.642;2022-11-25T15:54:30;10.60;99.90
15949;DHT22;14848;50.954;6.642;2022-11-25T15:57:02;10.40;99.90
15949;DHT22;14848;50.954;6.642;2022-11-25T15:59:47;10.10;99.90
15949;DHT22;14848;50.954;6.642;2022-11-25T16:02:32;10.40;99.90
15949;DHT22;14848;50.954;6.642;2022-11-25T16:07:53;10.40;99.90
15949;DHT22;14848;50.954;6.642;2022-11-25T16:20:59;10.50;99.90
15949;DHT22;14848;50.954;6.642;2022-11-25T16:23:27;10.40;99.90
15949;DHT22;14848;50.954;6.642;2022-11-25T16:28:48;10.30;99.90
15949;DHT22;14848;50.954;6.642;2022-11-25T16:31:15;10.30;99.90
15949;DHT22;14848;50.954;6.642;2022-11-25T16:33:41;10.20;99.90
15949;DHT22;14848;50.954;6.642;2022-11-25T16:36:07;10.20;99.90
15949;DHT22;14848;50.954;6.642;2022-11-25T16:38:33;10.20;99.90
15949;DHT22;14848;50.954;6.642;2022-11-25T16:40:59;10.10;99.90
15949;DHT22;14848;50.954;6.642;2022-11-25T16:43:26;10.00;99.90
15949;DHT22;14848;50.954;6.642;2022-11-25T16:45:53;10.00;99.90
15949;DHT22;14848;50.954;6.642;2022-11-25T16:48:21;10.00;99.90
15949;DHT22;14848;50.954;6.642;2022-11-25T16:50:48;10.00;99.90
15949;DHT22;14848;50.954;6.642;2022-11-25T16:53:13;10.10;99.90
15949;DHT22;14848;50.954;6.642;2022-11-25T16:55:41;10.10;99.90
15949;DHT22;14848;50.954;6.642;2022-11-25T16:58:20;10.10;99.90
15949;DHT22;14848;50.954;6.642;2022-11-25T17:00:56;10.10;99.90
15949;DHT22;14848;50.954;6.642;2022-11-25T17:03:22;10.00;99.90
15949;DHT22;14848;50.954;6.642;2022-11-25T17:05:54;9.90;99.90
15949;DHT22;14848;50.954;6.642;2022-11-25T17:08:20;10.00;99.90
15949;DHT22;14848;50.954;6.642;2022-11-25T17:10:47;9.90;99.90
15949;DHT22;14848;50.954;6.642;2022-11-25T17:13:17;9.90;99.90
15949;DHT22;14848;50.954;6.642;2022-11-25T17:15:46;9.80;99.90
15949;DHT22;14848;50.954;6.642;2022-11-25T17:18:14;9.80;99.90
15949;DHT22;14848;50.954;6.642;2022-11-25T17:20:43;9.90;99.90
15949;DHT22;14848;50.954;6.642;2022-11-25T17:23:14;9.90;99.90
15949;DHT22;14848;50.954;6.642;2022-11-25T17:25:42;9.90;99.90
15949;DHT22;14848;50.954;6.642;2022-11-25T17:28:15;10.00;99.90
15949;DHT22;14848;50.954;6.642;2022-11-25T17:30:43;10.00;99.90
15949;DHT22;14848;50.954;6.642;2022-11-25T17:33:15;10.00;99.90
15949;DHT22;14848;50.954;6.642;2022-11-25T17:35:41;10.10;99.90
15949;DHT22;14848;50.954;6.642;2022-11-25T17:38:19;10.10;99.90
15949;DHT22;14848;50.954;6.642;2022-11-25T17:40:45;10.10;99.90
15949;DHT22;14848;50.954;6.642;2022-11-25T17:43:16;10.00;99.90
15949;DHT22;14848;50.954;6.642;2022-11-25T17:45:43;9.90;99.90
15949;DHT22;14848;50.954;6.642;2022-11-25T17:48:11;10.10;99.90